Map

Track Data

SID SEASON NUMBER BASIN SUBBASIN NAME ISO_TIME NATURE LAT LON WMO_WIND WMO_PRES WMO_AGENCY TRACK_TYPE DIST2LAND LANDFALL IFLAG USA_AGENCY USA_ATCF_ID USA_LAT USA_LON USA_RECORD USA_STATUS USA_WIND USA_PRES USA_SSHS USA_R34_NE USA_R34_SE USA_R34_SW USA_R34_NW USA_R50_NE USA_R50_SE USA_R50_SW USA_R50_NW USA_R64_NE USA_R64_SE USA_R64_SW USA_R64_NW USA_POCI USA_ROCI USA_RMW USA_EYE TOKYO_LAT TOKYO_LON TOKYO_GRADE TOKYO_WIND TOKYO_PRES TOKYO_R50_DIR TOKYO_R50_LONG TOKYO_R50_SHORT TOKYO_R30_DIR TOKYO_R30_LONG TOKYO_R30_SHORT TOKYO_LAND CMA_LAT CMA_LON CMA_CAT CMA_WIND CMA_PRES HKO_LAT HKO_LON HKO_CAT HKO_WIND HKO_PRES NEWDELHI_LAT NEWDELHI_LON NEWDELHI_GRADE NEWDELHI_WIND NEWDELHI_PRES NEWDELHI_CI NEWDELHI_DP NEWDELHI_POCI REUNION_LAT REUNION_LON REUNION_TYPE REUNION_WIND REUNION_PRES REUNION_TNUM REUNION_CI REUNION_RMW REUNION_R34_NE REUNION_R34_SE REUNION_R34_SW REUNION_R34_NW REUNION_R50_NE REUNION_R50_SE REUNION_R50_SW REUNION_R50_NW REUNION_R64_NE REUNION_R64_SE REUNION_R64_SW REUNION_R64_NW BOM_LAT BOM_LON BOM_TYPE BOM_WIND BOM_PRES BOM_TNUM BOM_CI BOM_RMW BOM_R34_NE BOM_R34_SE BOM_R34_SW BOM_R34_NW BOM_R50_NE BOM_R50_SE BOM_R50_SW BOM_R50_NW BOM_R64_NE BOM_R64_SE BOM_R64_SW BOM_R64_NW BOM_ROCI BOM_POCI BOM_EYE BOM_POS_METHOD BOM_PRES_METHOD NADI_LAT NADI_LON NADI_CAT NADI_WIND NADI_PRES WELLINGTON_LAT WELLINGTON_LON WELLINGTON_WIND WELLINGTON_PRES DS824_LAT DS824_LON DS824_STAGE DS824_WIND DS824_PRES TD9636_LAT TD9636_LON TD9636_STAGE TD9636_WIND TD9636_PRES TD9635_LAT TD9635_LON TD9635_WIND TD9635_PRES TD9635_ROCI NEUMANN_LAT NEUMANN_LON NEUMANN_CLASS NEUMANN_WIND NEUMANN_PRES MLC_LAT MLC_LON MLC_CLASS MLC_WIND MLC_PRES USA_GUST BOM_GUST BOM_GUST_PER REUNION_GUST REUNION_GUST_PER USA_SEAHGT USA_SEARAD_NE USA_SEARAD_SE USA_SEARAD_SW USA_SEARAD_NW STORM_SPEED STORM_DIR
1981277N20116 1981 88 WP MM NOT_NAMED 1981-10-03 12:00:00 TS 20.5000 116.000 main 246 231 __O___________ -1 20.5000 116.000 0 19 1006 15 258
1981277N20116 1981 88 WP MM NOT_NAMED 1981-10-03 15:00:00 TS 20.3460 115.200 main 242 229 __P___________ -1 20.3460 115.200 0 21 1005 14 258
1981277N20116 1981 88 WP MM NOT_NAMED 1981-10-03 18:00:00 TS 20.2000 114.500 main 235 226 __O___________ -1 20.2000 114.500 1 23 1004 12 257
1981277N20116 1981 88 WP MM NOT_NAMED 1981-10-03 21:00:00 TS 20.0770 113.963 main 226 218 __P___________ -1 20.0770 113.963 1 23 1004 10 258
1981277N20116 1981 88 WP MM NOT_NAMED 1981-10-04 00:00:00 TS 20.0000 113.500 main 218 203 __O___________ -1 20.0000 113.500 1 23 1004 9 264
1981277N20116 1981 88 WP MM NOT_NAMED 1981-10-04 03:00:00 TS 19.9849 113.000 main 203 163 __P___________ -1 19.9849 113.000 1 23 1004 9 270
1981277N20116 1981 88 WP MM NOT_NAMED 1981-10-04 06:00:00 TS 20.0000 112.500 main 163 113 __O___________ -1 20.0000 112.500 1 23 1004 9 269
1981277N20116 1981 88 WP MM NOT_NAMED 1981-10-04 09:00:00 TS 19.9624 112.000 main 113 63 __P___________ -1 19.9624 112.000 1 23 1004 9 270
1981277N20116 1981 88 WP MM NOT_NAMED 1981-10-04 12:00:00 TS 20.0000 111.500 main 63 30 __O___________ -1 20.0000 111.500 1 23 1004 11 286
1981277N20116 1981 88 WP MM NOT_NAMED 1981-10-04 15:00:00 TS 20.2503 110.926 main 30 0 __P___________ -1 20.2503 110.926 1 23 1004 11 298
1981277N20116 1981 88 WP MM NOT_NAMED 1981-10-04 18:00:00 TS 20.5000 110.500 main 0 0 __O___________ -1 20.5000 110.500 1 23 1004 5 306
1981277N20116 1981 88 WP MM NOT_NAMED 1981-10-04 21:00:00 TS 20.5371 110.500 main 0 0 __P___________ -1 20.5371 110.500 1 23 1004 0 0
1981277N20116 1981 88 WP MM NOT_NAMED 1981-10-05 00:00:00 TS 20.5000 110.500 main 0 0 __O___________ -1 20.5000 110.500 1 23 1004 5 266
1981277N20116 1981 88 WP MM NOT_NAMED 1981-10-05 03:00:00 TS 20.5007 110.000 main 0 0 __P___________ -1 20.5007 110.000 1 23 1004 9 270
1981277N20116 1981 88 WP MM NOT_NAMED 1981-10-05 06:00:00 TS 20.5000 109.500 main 31 31 __O___________ -1 20.5000 109.500 1 23 1004 6 266
1981277N20116 1981 88 WP MM NOT_NAMED 1981-10-05 09:00:00 TS 20.4623 109.410 main 41 31 __P___________ -1 20.4623 109.410 1 23 1004 0 0
1981277N20116 1981 88 WP MM NOT_NAMED 1981-10-05 12:00:00 TS 20.5000 109.500 main 31 15 __O___________ -1 20.5000 109.500 1 23 1004 3 32
1981277N20116 1981 88 WP MM NOT_NAMED 1981-10-05 15:00:00 TS 20.7500 109.600 main 10 0 __P___________ -1 20.7500 109.600 1 21 1004 5 20
1981277N20116 1981 88 WP MM NOT_NAMED 1981-10-05 18:00:00 TS 21.0000 109.700 main 0 0 __O___________ -1 21.0000 109.700 0 19 1004 3 27
1981277N20116 1981 88 WP MM NOT_NAMED 1981-10-05 21:00:00 TS 21.0224 109.753 main 0 0 __P___________ -1 21.0224 109.753 0 19 1004 0 0
1981277N20116 1981 88 WP MM NOT_NAMED 1981-10-06 00:00:00 TS 21.0000 109.700 main 0 0 __O___________ -1 21.0000 109.700 0 19 1004 3 277
1981277N20116 1981 88 WP MM NOT_NAMED 1981-10-06 03:00:00 TS 21.0626 109.390 main 31 22 __P___________ -1 21.0626 109.390 0 19 1004 5 293
1981277N20116 1981 88 WP MM NOT_NAMED 1981-10-06 06:00:00 TS 21.2000 109.200 main 22 11 __O___________ -1 21.2000 109.200 0 19 1004 4 25
1981277N20116 1981 88 WP MM NOT_NAMED 1981-10-06 09:00:00 TS 21.4055 109.562 main 15 0 __P___________ -1 21.4055 109.562 0 19 1004 9 56
1981277N20116 1981 88 WP MM NOT_NAMED 1981-10-06 12:00:00 TS 21.7000 110.000 main 0 0 __O___________ -1 21.7000 110.000 0 19 1004 8 35
1981277N20116 1981 88 WP MM NOT_NAMED 1981-10-06 15:00:00 TS 22.0623 110.060 main 0 0 __P___________ -1 22.0623 110.060 0 19 1004 8 1
1981277N20116 1981 88 WP MM NOT_NAMED 1981-10-06 18:00:00 TS 22.5000 110.000 main 0 0 __O___________ -1 22.5000 110.000 0 19 1004 9 355
1981277N20116 1981 88 WP MM NOT_NAMED 1981-10-06 21:00:00 TS 22.9875 109.980 main 0 0 __P___________ -1 22.9875 109.980 0 19 1005 10 1
1981277N20116 1981 88 WP MM NOT_NAMED 1981-10-07 00:00:00 TS 23.5000 110.000 main 0 __O___________ -1 23.5000 110.000 0 19 1006 10 2

Digital Typhoon Data and Search

About IBTrACS Database

This database is a web-friendly format of International Best Track Archive for Climate Stewardship (IBTrACS), a global best track data archive curated by NOAA dating back to 1842.

Updated: 2021-11-26